sensor_id;sensor_type;location;lat;lon;timestamp;temperature;humidity
22940;DHT22;11636;52.086;5.090;2022-11-20T00:02:17;-1.00;99.90
22940;DHT22;11636;52.086;5.090;2022-11-20T00:04:45;-1.00;99.90
22940;DHT22;11636;52.086;5.090;2022-11-20T00:07:28;-1.10;99.90
22940;DHT22;11636;52.086;5.090;2022-11-20T00:10:02;-1.10;99.90
22940;DHT22;11636;52.086;5.090;2022-11-20T00:12:30;-1.10;99.90
22940;DHT22;11636;52.086;5.090;2022-11-20T00:14:56;-1.10;99.90
22940;DHT22;11636;52.086;5.090;2022-11-20T00:17:30;-1.10;99.90
22940;DHT22;11636;52.086;5.090;2022-11-20T00:19:57;-1.10;99.90
22940;DHT22;11636;52.086;5.090;2022-11-20T00:22:31;-1.20;99.90
22940;DHT22;11636;52.086;5.090;2022-11-20T00:24:58;-1.10;99.90
22940;DHT22;11636;52.086;5.090;2022-11-20T00:27:40;-1.20;99.90
22940;DHT22;11636;52.086;5.090;2022-11-20T00:30:07;-1.20;99.90
22940;DHT22;11636;52.086;5.090;2022-11-20T00:32:42;-1.20;99.90
22940;DHT22;11636;52.086;5.090;2022-11-20T00:35:09;-1.10;99.90
22940;DHT22;11636;52.086;5.090;2022-11-20T00:37:43;-1.10;99.90
22940;DHT22;11636;52.086;5.090;2022-11-20T00:40:10;-1.20;99.90
22940;DHT22;11636;52.086;5.090;2022-11-20T00:42:44;-1.20;99.90
22940;DHT22;11636;52.086;5.090;2022-11-20T00:45:17;-1.20;99.90
22940;DHT22;11636;52.086;5.090;2022-11-20T00:47:51;-1.20;99.90
22940;DHT22;11636;52.086;5.090;2022-11-20T00:50:17;-1.20;99.90
22940;DHT22;11636;52.086;5.090;2022-11-20T00:52:44;-1.20;99.90
22940;DHT22;11636;52.086;5.090;2022-11-20T00:55:21;-1.20;99.90
22940;DHT22;11636;52.086;5.090;2022-11-20T00:57:52;-1.30;99.90
22940;DHT22;11636;52.086;5.090;2022-11-20T01:00:30;-1.30;99.90
22940;DHT22;11636;52.086;5.090;2022-11-20T01:03:01;-1.30;99.90
22940;DHT22;11636;52.086;5.090;2022-11-20T01:05:35;-1.20;99.90
22940;DHT22;11636;52.086;5.090;2022-11-20T01:08:10;-1.30;99.90
22940;DHT22;11636;52.086;5.090;2022-11-20T01:10:37;-1.30;99.90
22940;DHT22;11636;52.086;5.090;2022-11-20T01:13:06;-1.30;99.90
22940;DHT22;11636;52.086;5.090;2022-11-20T01:16:12;-1.30;99.90
22940;DHT22;11636;52.086;5.090;2022-11-20T01:18:48;-1.30;99.90
22940;DHT22;11636;52.086;5.090;2022-11-20T01:21:21;-1.30;99.90
22940;DHT22;11636;52.086;5.090;2022-11-20T01:23:56;-1.30;99.90
22940;DHT22;11636;52.086;5.090;2022-11-20T01:26:32;-1.30;99.90
22940;DHT22;11636;52.086;5.090;2022-11-20T01:29:06;-1.40;99.90
22940;DHT22;11636;52.086;5.090;2022-11-20T01:31:37;-1.40;99.90
22940;DHT22;11636;52.086;5.090;2022-11-20T01:34:16;-1.40;99.90
22940;DHT22;11636;52.086;5.090;2022-11-20T01:36:43;-1.40;99.90
22940;DHT22;11636;52.086;5.090;2022-11-20T01:39:22;-1.50;99.90
22940;DHT22;11636;52.086;5.090;2022-11-20T01:41:51;-1.40;99.90
22940;DHT22;11636;52.086;5.090;2022-11-20T01:44:58;-1.40;99.90
22940;DHT22;11636;52.086;5.090;2022-11-20T01:47:43;-1.50;99.90
22940;DHT22;11636;52.086;5.090;2022-11-20T01:50:23;-1.50;99.90
22940;DHT22;11636;52.086;5.090;2022-11-20T01:53:18;-1.60;99.90
22940;DHT22;11636;52.086;5.090;2022-11-20T01:55:56;-1.50;99.90
22940;DHT22;11636;52.086;5.090;2022-11-20T01:58:33;-1.60;99.90
22940;DHT22;11636;52.086;5.090;2022-11-20T02:01:12;-1.60;99.90
22940;DHT22;11636;52.086;5.090;2022-11-20T02:03:59;-1.60;99.90
22940;DHT22;11636;52.086;5.090;2022-11-20T02:06:38;-1.60;99.90
22940;DHT22;11636;52.086;5.090;2022-11-20T02:09:06;-1.60;99.90
22940;DHT22;11636;52.086;5.090;2022-11-20T02:11:40;-1.60;99.90
22940;DHT22;11636;52.086;5.090;2022-11-20T02:14:14;-1.70;99.90
22940;DHT22;11636;52.086;5.090;2022-11-20T02:16:48;-1.70;99.90
22940;DHT22;11636;52.086;5.090;2022-11-20T02:19:26;-1.60;99.90
22940;DHT22;11636;52.086;5.090;2022-11-20T02:22:07;-1.70;99.90
22940;DHT22;11636;52.086;5.090;2022-11-20T02:24:36;-1.70;99.90
22940;DHT22;11636;52.086;5.090;2022-11-20T02:27:12;-1.70;99.90
22940;DHT22;11636;52.086;5.090;2022-11-20T02:29:52;-1.70;99.90
22940;DHT22;11636;52.086;5.090;2022-11-20T02:32:37;-1.70;99.90
22940;DHT22;11636;52.086;5.090;2022-11-20T02:38:00;-1.70;99.90
22940;DHT22;11636;52.086;5.090;2022-11-20T02:40:27;-1.70;99.90
22940;DHT22;11636;52.086;5.090;2022-11-20T02:43:01;-1.70;99.90
22940;DHT22;11636;52.086;5.090;2022-11-20T02:45:42;-1.70;99.90
22940;DHT22;11636;52.086;5.090;2022-11-20T02:48:14;-1.70;99.90
22940;DHT22;11636;52.086;5.090;2022-11-20T02:50:51;-1.70;99.90
22940;DHT22;11636;52.086;5.090;2022-11-20T02:53:24;-1.70;99.90
22940;DHT22;11636;52.086;5.090;2022-11-20T02:55:51;-1.70;99.90
22940;DHT22;11636;52.086;5.090;2022-11-20T02:58:25;-1.70;99.90
22940;DHT22;11636;52.086;5.090;2022-11-20T03:00:56;-1.70;99.90
22940;DHT22;11636;52.086;5.090;2022-11-20T03:03:30;-1.70;99.90
22940;DHT22;11636;52.086;5.090;2022-11-20T03:05:58;-1.70;99.90
22940;DHT22;11636;52.086;5.090;2022-11-20T03:08:26;-1.80;99.90
22940;DHT22;11636;52.086;5.090;2022-11-20T03:11:04;-1.80;99.90
22940;DHT22;11636;52.086;5.090;2022-11-20T03:13:31;-1.80;99.90
22940;DHT22;11636;52.086;5.090;2022-11-20T03:16:23;-1.80;99.90
22940;DHT22;11636;52.086;5.090;2022-11-20T03:18:52;-1.80;99.90
22940;DHT22;11636;52.086;5.090;2022-11-20T03:21:26;-1.80;99.90
22940;DHT22;11636;52.086;5.090;2022-11-20T03:23:54;-1.80;99.90
22940;DHT22;11636;52.086;5.090;2022-11-20T03:26:23;-1.80;99.90
22940;DHT22;11636;52.086;5.090;2022-11-20T03:28:59;-1.90;99.90
22940;DHT22;11636;52.086;5.090;2022-11-20T03:31:35;-1.80;99.90
22940;DHT22;11636;52.086;5.090;2022-11-20T03:34:03;-1.90;99.90
22940;DHT22;11636;52.086;5.090;2022-11-20T03:36:31;-1.90;99.90
22940;DHT22;11636;52.086;5.090;2022-11-20T03:39:05;-1.90;99.90
22940;DHT22;11636;52.086;5.090;2022-11-20T03:41:41;-2.00;99.90
22940;DHT22;11636;52.086;5.090;2022-11-20T03:44:10;-2.00;99.90
22940;DHT22;11636;52.086;5.090;2022-11-20T03:46:44;-2.00;99.90
22940;DHT22;11636;52.086;5.090;2022-11-20T03:49:11;-2.00;99.90
22940;DHT22;11636;52.086;5.090;2022-11-20T03:51:37;-2.00;99.90
22940;DHT22;11636;52.086;5.090;2022-11-20T03:54:11;-2.00;99.90
22940;DHT22;11636;52.086;5.090;2022-11-20T03:56:38;-2.00;99.90
22940;DHT22;11636;52.086;5.090;2022-11-20T03:59:06;-2.00;99.90
22940;DHT22;11636;52.086;5.090;2022-11-20T04:01:40;-2.00;99.90
22940;DHT22;11636;52.086;5.090;2022-11-20T04:04:19;-2.00;99.90
22940;DHT22;11636;52.086;5.090;2022-11-20T04:06:53;-2.10;99.90
22940;DHT22;11636;52.086;5.090;2022-11-20T04:09:29;-2.10;99.90
22940;DHT22;11636;52.086;5.090;2022-11-20T04:11:58;-2.10;99.90
22940;DHT22;11636;52.086;5.090;2022-11-20T04:14:32;-2.10;99.90
22940;DHT22;11636;52.086;5.090;2022-11-20T04:16:59;-2.10;99.90
22940;DHT22;11636;52.086;5.090;2022-11-20T04:19:32;-2.20;99.90
22940;DHT22;11636;52.086;5.090;2022-11-20T04:21:59;-2.10;99.90
22940;DHT22;11636;52.086;5.090;2022-11-20T04:24:40;-2.10;99.90
22940;DHT22;11636;52.086;5.090;2022-11-20T04:27:14;-2.20;99.90
22940;DHT22;11636;52.086;5.090;2022-11-20T04:29:47;-2.20;99.90
22940;DHT22;11636;52.086;5.090;2022-11-20T04:32:14;-2.20;99.90
22940;DHT22;11636;52.086;5.090;2022-11-20T04:34:47;-2.20;99.90
22940;DHT22;11636;52.086;5.090;2022-11-20T04:37:14;-2.20;99.90
22940;DHT22;11636;52.086;5.090;2022-11-20T04:39:47;-2.20;99.90
22940;DHT22;11636;52.086;5.090;2022-11-20T04:42:14;-2.20;99.90
22940;DHT22;11636;52.086;5.090;2022-11-20T04:45:02;-2.20;99.90
22940;DHT22;11636;52.086;5.090;2022-11-20T04:47:35;-2.20;99.90
22940;DHT22;11636;52.086;5.090;2022-11-20T04:50:02;-2.20;99.90
22940;DHT22;11636;52.086;5.090;2022-11-20T04:52:36;-2.30;99.90
22940;DHT22;11636;52.086;5.090;2022-11-20T04:55:03;-2.20;99.90
22940;DHT22;11636;52.086;5.090;2022-11-20T04:57:38;-2.20;99.90
22940;DHT22;11636;52.086;5.090;2022-11-20T05:00:06;-2.20;99.90
22940;DHT22;11636;52.086;5.090;2022-11-20T05:02:33;-2.20;99.90
22940;DHT22;11636;52.086;5.090;2022-11-20T05:05:10;-2.20;99.90
22940;DHT22;11636;52.086;5.090;2022-11-20T05:07:36;-2.20;99.90
22940;DHT22;11636;52.086;5.090;2022-11-20T05:10:10;-2.20;99.90
22940;DHT22;11636;52.086;5.090;2022-11-20T05:12:43;-2.20;99.90
22940;DHT22;11636;52.086;5.090;2022-11-20T05:15:16;-2.20;99.90
22940;DHT22;11636;52.086;5.090;2022-11-20T05:17:50;-2.20;99.90
22940;DHT22;11636;52.086;5.090;2022-11-20T05:20:24;-2.20;99.90
22940;DHT22;11636;52.086;5.090;2022-11-20T05:22:59;-2.20;99.90
22940;DHT22;11636;52.086;5.090;2022-11-20T05:25:26;-2.20;99.90
22940;DHT22;11636;52.086;5.090;2022-11-20T05:28:03;-2.20;99.90
22940;DHT22;11636;52.086;5.090;2022-11-20T05:30:30;-2.20;99.90
22940;DHT22;11636;52.086;5.090;2022-11-20T05:33:04;-2.30;99.90
22940;DHT22;11636;52.086;5.090;2022-11-20T05:35:37;-2.20;99.90
22940;DHT22;11636;52.086;5.090;2022-11-20T05:38:13;-2.30;99.90
22940;DHT22;11636;52.086;5.090;2022-11-20T05:40:47;-2.30;99.90
22940;DHT22;11636;52.086;5.090;2022-11-20T05:43:14;-2.30;99.90
22940;DHT22;11636;52.086;5.090;2022-11-20T05:45:56;-2.30;99.90
22940;DHT22;11636;52.086;5.090;2022-11-20T05:48:30;-2.30;99.90
22940;DHT22;11636;52.086;5.090;2022-11-20T05:51:13;-2.30;99.90
22940;DHT22;11636;52.086;5.090;2022-11-20T05:53:40;-2.30;99.90
22940;DHT22;11636;52.086;5.090;2022-11-20T05:56:20;-2.40;99.90
22940;DHT22;11636;52.086;5.090;2022-11-20T05:58:54;-2.30;99.90
22940;DHT22;11636;52.086;5.090;2022-11-20T06:01:23;-2.40;99.90
22940;DHT22;11636;52.086;5.090;2022-11-20T06:03:57;-2.40;99.90
22940;DHT22;11636;52.086;5.090;2022-11-20T06:06:30;-2.30;99.90
22940;DHT22;11636;52.086;5.090;2022-11-20T06:09:03;-2.30;99.90
22940;DHT22;11636;52.086;5.090;2022-11-20T06:11:30;-2.30;99.90
22940;DHT22;11636;52.086;5.090;2022-11-20T06:14:03;-2.20;99.90
22940;DHT22;11636;52.086;5.090;2022-11-20T06:16:30;-2.20;99.90
22940;DHT22;11636;52.086;5.090;2022-11-20T06:18:57;-2.10;99.90
22940;DHT22;11636;52.086;5.090;2022-11-20T06:21:37;-2.10;99.90
22940;DHT22;11636;52.086;5.090;2022-11-20T06:24:10;-2.10;99.90
22940;DHT22;11636;52.086;5.090;2022-11-20T06:26:38;-2.10;99.90
22940;DHT22;11636;52.086;5.090;2022-11-20T06:29:11;-2.10;99.90
22940;DHT22;11636;52.086;5.090;2022-11-20T06:31:44;-2.10;99.90
22940;DHT22;11636;52.086;5.090;2022-11-20T06:34:18;-2.10;99.90
22940;DHT22;11636;52.086;5.090;2022-11-20T06:36:45;-2.10;99.90
22940;DHT22;11636;52.086;5.090;2022-11-20T06:39:12;-2.10;99.90
22940;DHT22;11636;52.086;5.090;2022-11-20T06:41:46;-2.10;99.90
22940;DHT22;11636;52.086;5.090;2022-11-20T06:44:13;-2.10;99.90
22940;DHT22;11636;52.086;5.090;2022-11-20T06:46:46;-2.10;99.90
22940;DHT22;11636;52.086;5.090;2022-11-20T06:49:13;-2.10;99.90
22940;DHT22;11636;52.086;5.090;2022-11-20T06:51:40;-2.10;99.90
22940;DHT22;11636;52.086;5.090;2022-11-20T06:54:13;-2.10;99.90
22940;DHT22;11636;52.086;5.090;2022-11-20T06:56:40;-2.10;99.90
22940;DHT22;11636;52.086;5.090;2022-11-20T06:59:13;-2.00;99.90
22940;DHT22;11636;52.086;5.090;2022-11-20T07:01:40;-2.00;99.90
22940;DHT22;11636;52.086;5.090;2022-11-20T07:04:14;-2.00;99.90
22940;DHT22;11636;52.086;5.090;2022-11-20T07:06:41;-2.00;99.90
22940;DHT22;11636;52.086;5.090;2022-11-20T07:09:08;-2.00;99.90
22940;DHT22;11636;52.086;5.090;2022-11-20T07:11:41;-2.00;99.90
22940;DHT22;11636;52.086;5.090;2022-11-20T07:14:08;-2.00;99.90
22940;DHT22;11636;52.086;5.090;2022-11-20T07:16:35;-2.00;99.90
22940;DHT22;11636;52.086;5.090;2022-11-20T07:19:08;-2.00;99.90
22940;DHT22;11636;52.086;5.090;2022-11-20T07:21:35;-2.00;99.90
22940;DHT22;11636;52.086;5.090;2022-11-20T07:24:08;-2.00;99.90
22940;DHT22;11636;52.086;5.090;2022-11-20T07:26:35;-2.00;99.90
22940;DHT22;11636;52.086;5.090;2022-11-20T07:29:02;-2.00;99.90
22940;DHT22;11636;52.086;5.090;2022-11-20T07:31:35;-1.90;99.90
22940;DHT22;11636;52.086;5.090;2022-11-20T07:34:09;-1.90;99.90
22940;DHT22;11636;52.086;5.090;2022-11-20T07:36:36;-1.90;99.90
22940;DHT22;11636;52.086;5.090;2022-11-20T07:39:09;-1.80;99.90
22940;DHT22;11636;52.086;5.090;2022-11-20T07:41:36;-1.70;99.90
22940;DHT22;11636;52.086;5.090;2022-11-20T07:44:09;-1.70;99.90
22940;DHT22;11636;52.086;5.090;2022-11-20T07:46:42;-1.60;99.90
22940;DHT22;11636;52.086;5.090;2022-11-20T07:49:09;-1.50;99.90
22940;DHT22;11636;52.086;5.090;2022-11-20T07:51:36;-1.40;99.90
22940;DHT22;11636;52.086;5.090;2022-11-20T07:54:09;-1.30;99.90
22940;DHT22;11636;52.086;5.090;2022-11-20T07:56:41;-1.30;99.90
22940;DHT22;11636;52.086;5.090;2022-11-20T07:59:15;-1.20;99.90
22940;DHT22;11636;52.086;5.090;2022-11-20T08:01:42;-1.10;99.90
22940;DHT22;11636;52.086;5.090;2022-11-20T08:04:22;-1.10;99.90
22940;DHT22;11636;52.086;5.090;2022-11-20T08:06:52;-1.00;99.90
22940;DHT22;11636;52.086;5.090;2022-11-20T08:09:19;-1.00;99.90
22940;DHT22;11636;52.086;5.090;2022-11-20T08:11:52;-0.90;99.90
22940;DHT22;11636;52.086;5.090;2022-11-20T08:14:44;-0.80;99.90
22940;DHT22;11636;52.086;5.090;2022-11-20T08:17:17;-0.80;99.90
22940;DHT22;11636;52.086;5.090;2022-11-20T08:19:52;-0.70;99.90
22940;DHT22;11636;52.086;5.090;2022-11-20T08:22:20;-0.70;99.90
22940;DHT22;11636;52.086;5.090;2022-11-20T08:24:54;-0.70;99.90
22940;DHT22;11636;52.086;5.090;2022-11-20T08:27:21;-0.70;99.90
22940;DHT22;11636;52.086;5.090;2022-11-20T08:29:48;-0.60;99.90
22940;DHT22;11636;52.086;5.090;2022-11-20T08:32:22;-0.60;99.90
22940;DHT22;11636;52.086;5.090;2022-11-20T08:34:49;-0.50;99.90
22940;DHT22;11636;52.086;5.090;2022-11-20T08:37:22;-0.40;99.90
22940;DHT22;11636;52.086;5.090;2022-11-20T08:39:49;-0.30;99.90
22940;DHT22;11636;52.086;5.090;2022-11-20T08:42:22;-0.30;99.90
22940;DHT22;11636;52.086;5.090;2022-11-20T08:44:55;-0.30;99.90
22940;DHT22;11636;52.086;5.090;2022-11-20T08:47:28;-0.30;99.90
22940;DHT22;11636;52.086;5.090;2022-11-20T08:50:02;-0.20;99.90
22940;DHT22;11636;52.086;5.090;2022-11-20T08:52:33;-0.20;99.90
22940;DHT22;11636;52.086;5.090;2022-11-20T08:55:07;-0.20;99.90
22940;DHT22;11636;52.086;5.090;2022-11-20T08:57:37;-0.10;99.90
22940;DHT22;11636;52.086;5.090;2022-11-20T09:00:06;-0.10;99.90
22940;DHT22;11636;52.086;5.090;2022-11-20T09:02:40;0.00;99.90
22940;DHT22;11636;52.086;5.090;2022-11-20T09:05:07;0.00;99.90
22940;DHT22;11636;52.086;5.090;2022-11-20T09:07:35;0.10;99.90
22940;DHT22;11636;52.086;5.090;2022-11-20T09:10:15;0.10;99.90
22940;DHT22;11636;52.086;5.090;2022-11-20T09:12:51;0.20;99.90
22940;DHT22;11636;52.086;5.090;2022-11-20T09:15:25;0.20;99.90
22940;DHT22;11636;52.086;5.090;2022-11-20T09:18:05;0.30;99.90
22940;DHT22;11636;52.086;5.090;2022-11-20T09:20:32;0.30;99.90
22940;DHT22;11636;52.086;5.090;2022-11-20T09:23:08;0.40;99.90
22940;DHT22;11636;52.086;5.090;2022-11-20T09:25:42;0.50;99.90
22940;DHT22;11636;52.086;5.090;2022-11-20T09:28:09;0.60;99.90
22940;DHT22;11636;52.086;5.090;2022-11-20T09:30:36;0.60;99.90
22940;DHT22;11636;52.086;5.090;2022-11-20T09:33:18;0.70;99.90
22940;DHT22;11636;52.086;5.090;2022-11-20T09:35:44;0.80;99.90
22940;DHT22;11636;52.086;5.090;2022-11-20T09:38:20;0.90;99.90
22940;DHT22;11636;52.086;5.090;2022-11-20T09:41:05;0.90;99.90
22940;DHT22;11636;52.086;5.090;2022-11-20T09:46:39;1.10;99.90
22940;DHT22;11636;52.086;5.090;2022-11-20T09:54:47;1.30;99.90
22940;DHT22;11636;52.086;5.090;2022-11-20T09:57:35;1.30;99.90
22940;DHT22;11636;52.086;5.090;2022-11-20T10:00:12;1.30;99.90
22940;DHT22;11636;52.086;5.090;2022-11-20T10:05:46;1.40;99.90
22940;DHT22;11636;52.086;5.090;2022-11-20T10:08:25;1.50;99.90
22940;DHT22;11636;52.086;5.090;2022-11-20T10:11:14;1.50;99.90
22940;DHT22;11636;52.086;5.090;2022-11-20T10:14:11;1.50;99.90
22940;DHT22;11636;52.086;5.090;2022-11-20T10:19:29;1.60;99.90
22940;DHT22;11636;52.086;5.090;2022-11-20T10:31:02;1.90;99.90
22940;DHT22;11636;52.086;5.090;2022-11-20T10:33:44;1.90;99.90
22940;DHT22;11636;52.086;5.090;2022-11-20T10:36:41;1.90;99.90
22940;DHT22;11636;52.086;5.090;2022-11-20T10:39:24;2.00;99.90
22940;DHT22;11636;52.086;5.090;2022-11-20T10:41:59;2.10;99.90
22940;DHT22;11636;52.086;5.090;2022-11-20T10:44:34;2.10;99.90
22940;DHT22;11636;52.086;5.090;2022-11-20T10:47:25;2.20;99.90
22940;DHT22;11636;52.086;5.090;2022-11-20T10:50:05;2.30;99.90
22940;DHT22;11636;52.086;5.090;2022-11-20T10:53:01;2.30;99.90
22940;DHT22;11636;52.086;5.090;2022-11-20T10:55:46;2.40;99.90
22940;DHT22;11636;52.086;5.090;2022-11-20T11:00:51;2.50;99.90
22940;DHT22;11636;52.086;5.090;2022-11-20T11:03:29;2.50;99.90
22940;DHT22;11636;52.086;5.090;2022-11-20T11:08:40;2.50;99.90
22940;DHT22;11636;52.086;5.090;2022-11-20T11:11:21;2.50;99.90
22940;DHT22;11636;52.086;5.090;2022-11-20T11:14:05;2.50;99.90
22940;DHT22;11636;52.086;5.090;2022-11-20T11:16:56;2.40;99.90
22940;DHT22;11636;52.086;5.090;2022-11-20T11:19:23;2.40;99.90
22940;DHT22;11636;52.086;5.090;2022-11-20T11:21:57;2.40;99.90
22940;DHT22;11636;52.086;5.090;2022-11-20T11:24:28;2.40;99.90
22940;DHT22;11636;52.086;5.090;2022-11-20T11:27:14;2.40;99.90
22940;DHT22;11636;52.086;5.090;2022-11-20T11:30:14;2.30;99.90
22940;DHT22;11636;52.086;5.090;2022-11-20T11:32:49;2.30;99.90
22940;DHT22;11636;52.086;5.090;2022-11-20T11:35:28;2.30;99.90
22940;DHT22;11636;52.086;5.090;2022-11-20T11:38:07;2.20;99.90
22940;DHT22;11636;52.086;5.090;2022-11-20T11:40:44;2.20;99.90
22940;DHT22;11636;52.086;5.090;2022-11-20T11:43:21;2.20;99.90
22940;DHT22;11636;52.086;5.090;2022-11-20T11:57:00;2.20;99.90
22940;DHT22;11636;52.086;5.090;2022-11-20T12:05:18;2.30;99.90
22940;DHT22;11636;52.086;5.090;2022-11-20T12:08:15;2.30;99.90
22940;DHT22;11636;52.086;5.090;2022-11-20T12:11:05;2.40;99.90
22940;DHT22;11636;52.086;5.090;2022-11-20T12:16:41;2.40;99.90
22940;DHT22;11636;52.086;5.090;2022-11-20T12:19:15;2.40;99.90
22940;DHT22;11636;52.086;5.090;2022-11-20T12:30:23;2.30;99.90
22940;DHT22;11636;52.086;5.090;2022-11-20T12:33:49;2.20;99.90
22940;DHT22;11636;52.086;5.090;2022-11-20T12:42:05;2.40;99.90
22940;DHT22;11636;52.086;5.090;2022-11-20T12:45:14;2.40;99.90
22940;DHT22;11636;52.086;5.090;2022-11-20T12:51:03;2.40;99.90
22940;DHT22;11636;52.086;5.090;2022-11-20T12:54:02;2.50;99.90
22940;DHT22;11636;52.086;5.090;2022-11-20T13:07:40;2.60;99.90
22940;DHT22;11636;52.086;5.090;2022-11-20T13:19:02;2.60;99.90
22940;DHT22;11636;52.086;5.090;2022-11-20T13:21:41;2.60;99.90
22940;DHT22;11636;52.086;5.090;2022-11-20T13:24:24;2.50;99.90
22940;DHT22;11636;52.086;5.090;2022-11-20T13:29:47;2.50;99.90
22940;DHT22;11636;52.086;5.090;2022-11-20T13:32:20;2.50;99.90
22940;DHT22;11636;52.086;5.090;2022-11-20T13:34:57;2.50;99.90
22940;DHT22;11636;52.086;5.090;2022-11-20T13:37:33;2.50;99.90
22940;DHT22;11636;52.086;5.090;2022-11-20T13:42:51;2.50;99.90
22940;DHT22;11636;52.086;5.090;2022-11-20T13:45:30;2.50;99.90
22940;DHT22;11636;52.086;5.090;2022-11-20T13:48:02;2.40;99.90
22940;DHT22;11636;52.086;5.090;2022-11-20T13:50:59;2.40;99.90
22940;DHT22;11636;52.086;5.090;2022-11-20T13:57:16;2.40;99.90
22940;DHT22;11636;52.086;5.090;2022-11-20T14:00:11;2.40;99.90
22940;DHT22;11636;52.086;5.090;2022-11-20T14:05:28;2.50;99.90
22940;DHT22;11636;52.086;5.090;2022-11-20T14:08:06;2.50;99.90
22940;DHT22;11636;52.086;5.090;2022-11-20T14:10:38;2.50;99.90
22940;DHT22;11636;52.086;5.090;2022-11-20T14:13:19;2.50;99.90
22940;DHT22;11636;52.086;5.090;2022-11-20T14:15:47;2.50;99.90
22940;DHT22;11636;52.086;5.090;2022-11-20T14:18:26;2.50;99.90
22940;DHT22;11636;52.086;5.090;2022-11-20T14:20:55;2.50;99.90
22940;DHT22;11636;52.086;5.090;2022-11-20T14:23:29;2.50;99.90
22940;DHT22;11636;52.086;5.090;2022-11-20T14:25:56;2.60;99.90
22940;DHT22;11636;52.086;5.090;2022-11-20T14:28:29;2.50;99.90
22940;DHT22;11636;52.086;5.090;2022-11-20T14:31:03;2.50;99.90
22940;DHT22;11636;52.086;5.090;2022-11-20T14:33:37;2.50;99.90
22940;DHT22;11636;52.086;5.090;2022-11-20T14:36:04;2.60;99.90
22940;DHT22;11636;52.086;5.090;2022-11-20T14:38:32;2.50;99.90
22940;DHT22;11636;52.086;5.090;2022-11-20T14:41:22;2.50;99.90
22940;DHT22;11636;52.086;5.090;2022-11-20T14:43:59;2.50;99.90
22940;DHT22;11636;52.086;5.090;2022-11-20T14:46:33;2.50;99.90
22940;DHT22;11636;52.086;5.090;2022-11-20T14:49:01;2.50;99.90
22940;DHT22;11636;52.086;5.090;2022-11-20T14:51:38;2.50;99.90
22940;DHT22;11636;52.086;5.090;2022-11-20T14:54:19;2.50;99.90
22940;DHT22;11636;52.086;5.090;2022-11-20T14:56:59;2.50;99.90
22940;DHT22;11636;52.086;5.090;2022-11-20T14:59:34;2.50;99.90
22940;DHT22;11636;52.086;5.090;2022-11-20T15:02:07;2.50;99.90
22940;DHT22;11636;52.086;5.090;2022-11-20T15:04:56;2.50;99.90
22940;DHT22;11636;52.086;5.090;2022-11-20T15:07:28;2.50;99.90
22940;DHT22;11636;52.086;5.090;2022-11-20T15:10:19;2.50;99.90
22940;DHT22;11636;52.086;5.090;2022-11-20T15:12:53;2.50;99.90
22940;DHT22;11636;52.086;5.090;2022-11-20T15:15:35;2.50;99.90
22940;DHT22;11636;52.086;5.090;2022-11-20T15:18:26;2.60;99.90
22940;DHT22;11636;52.086;5.090;2022-11-20T15:21:00;2.60;99.90
22940;DHT22;11636;52.086;5.090;2022-11-20T15:23:43;2.60;99.90
22940;DHT22;11636;52.086;5.090;2022-11-20T15:26:12;2.60;99.90
22940;DHT22;11636;52.086;5.090;2022-11-20T15:28:47;2.60;99.90
22940;DHT22;11636;52.086;5.090;2022-11-20T15:31:23;2.60;99.90
22940;DHT22;11636;52.086;5.090;2022-11-20T15:33:50;2.60;99.90
22940;DHT22;11636;52.086;5.090;2022-11-20T15:36:24;2.60;99.90
22940;DHT22;11636;52.086;5.090;2022-11-20T15:38:51;2.70;99.90
22940;DHT22;11636;52.086;5.090;2022-11-20T15:41:19;2.70;99.90
22940;DHT22;11636;52.086;5.090;2022-11-20T15:43:56;2.70;99.90
22940;DHT22;11636;52.086;5.090;2022-11-20T15:46:27;2.70;99.90
22940;DHT22;11636;52.086;5.090;2022-11-20T15:49:01;2.70;99.90
22940;DHT22;11636;52.086;5.090;2022-11-20T15:51:31;2.70;99.90
22940;DHT22;11636;52.086;5.090;2022-11-20T15:53:59;2.70;99.90
22940;DHT22;11636;52.086;5.090;2022-11-20T15:56:32;2.80;99.90
22940;DHT22;11636;52.086;5.090;2022-11-20T15:59:00;2.80;99.90
22940;DHT22;11636;52.086;5.090;2022-11-20T16:01:26;2.80;99.90
22940;DHT22;11636;52.086;5.090;2022-11-20T16:04:00;2.80;99.90
22940;DHT22;11636;52.086;5.090;2022-11-20T16:06:27;2.80;99.90
22940;DHT22;11636;52.086;5.090;2022-11-20T16:08:57;2.80;99.90
22940;DHT22;11636;52.086;5.090;2022-11-20T16:11:31;2.80;99.90
22940;DHT22;11636;52.086;5.090;2022-11-20T16:14:12;2.80;99.90
22940;DHT22;11636;52.086;5.090;2022-11-20T16:16:58;2.80;99.90
22940;DHT22;11636;52.086;5.090;2022-11-20T16:19:31;2.90;99.90
22940;DHT22;11636;52.086;5.090;2022-11-20T16:22:00;2.90;99.90
22940;DHT22;11636;52.086;5.090;2022-11-20T16:24:29;2.90;99.90
22940;DHT22;11636;52.086;5.090;2022-11-20T16:27:02;2.90;99.90
22940;DHT22;11636;52.086;5.090;2022-11-20T16:29:29;2.90;99.90
22940;DHT22;11636;52.086;5.090;2022-11-20T16:31:56;2.90;99.90
22940;DHT22;11636;52.086;5.090;2022-11-20T16:34:30;3.00;99.90
22940;DHT22;11636;52.086;5.090;2022-11-20T16:37:03;3.00;99.90
22940;DHT22;11636;52.086;5.090;2022-11-20T16:39:36;3.00;99.90
22940;DHT22;11636;52.086;5.090;2022-11-20T16:42:03;3.00;99.90
22940;DHT22;11636;52.086;5.090;2022-11-20T16:44:30;3.00;99.90
22940;DHT22;11636;52.086;5.090;2022-11-20T16:47:04;3.00;99.90
22940;DHT22;11636;52.086;5.090;2022-11-20T16:49:31;3.00;99.90
22940;DHT22;11636;52.086;5.090;2022-11-20T16:52:05;3.00;99.90
22940;DHT22;11636;52.086;5.090;2022-11-20T16:54:33;3.10;99.90
22940;DHT22;11636;52.086;5.090;2022-11-20T16:57:07;3.10;99.90
22940;DHT22;11636;52.086;5.090;2022-11-20T16:59:34;3.10;99.90
22940;DHT22;11636;52.086;5.090;2022-11-20T17:02:01;3.10;99.90
22940;DHT22;11636;52.086;5.090;2022-11-20T17:04:35;3.10;99.90
22940;DHT22;11636;52.086;5.090;2022-11-20T17:07:09;3.10;99.90
22940;DHT22;11636;52.086;5.090;2022-11-20T17:09:37;3.10;99.90
22940;DHT22;11636;52.086;5.090;2022-11-20T17:12:04;3.10;99.90
22940;DHT22;11636;52.086;5.090;2022-11-20T17:14:38;3.10;99.90
22940;DHT22;11636;52.086;5.090;2022-11-20T17:17:06;3.10;99.90
22940;DHT22;11636;52.086;5.090;2022-11-20T17:19:33;3.10;99.90
22940;DHT22;11636;52.086;5.090;2022-11-20T17:22:06;3.10;99.90
22940;DHT22;11636;52.086;5.090;2022-11-20T17:24:33;3.10;99.90
22940;DHT22;11636;52.086;5.090;2022-11-20T17:27:00;3.10;99.90
22940;DHT22;11636;52.086;5.090;2022-11-20T17:29:34;3.10;99.90
22940;DHT22;11636;52.086;5.090;2022-11-20T17:32:11;3.10;99.90
22940;DHT22;11636;52.086;5.090;2022-11-20T17:34:45;3.10;99.90
22940;DHT22;11636;52.086;5.090;2022-11-20T17:37:12;3.10;99.90
22940;DHT22;11636;52.086;5.090;2022-11-20T17:39:39;3.10;99.90
22940;DHT22;11636;52.086;5.090;2022-11-20T17:42:14;3.10;99.90
22940;DHT22;11636;52.086;5.090;2022-11-20T17:44:55;3.10;99.90
22940;DHT22;11636;52.086;5.090;2022-11-20T17:47:30;3.10;99.90
22940;DHT22;11636;52.086;5.090;2022-11-20T17:49:57;3.20;99.90
22940;DHT22;11636;52.086;5.090;2022-11-20T17:52:24;3.20;99.90
22940;DHT22;11636;52.086;5.090;2022-11-20T17:54:58;3.20;99.90
22940;DHT22;11636;52.086;5.090;2022-11-20T17:57:32;3.20;99.90
22940;DHT22;11636;52.086;5.090;2022-11-20T18:00:24;3.20;99.90
22940;DHT22;11636;52.086;5.090;2022-11-20T18:02:51;3.20;99.90